sensor_id;sensor_type;location;lat;lon;timestamp;pressure;altitude;pressure_sealevel;temperature;humidity
77685;BME280;66844;46.092;18.268;2023-04-06T00:00:03;99421.16;;;2.77;47.03
77685;BME280;66844;46.092;18.268;2023-04-06T00:00:35;99426.47;;;2.75;47.17
77685;BME280;66844;46.092;18.268;2023-04-06T00:01:05;99426.50;;;2.74;47.04
77685;BME280;66844;46.092;18.268;2023-04-06T00:01:36;99429.13;;;2.74;47.24
77685;BME280;66844;46.092;18.268;2023-04-06T00:02:07;99426.38;;;2.78;47.19
77685;BME280;66844;46.092;18.268;2023-04-06T00:02:37;99421.25;;;2.72;46.73
77685;BME280;66844;46.092;18.268;2023-04-06T00:03:08;99426.50;;;2.72;47.06
77685;BME280;66844;46.092;18.268;2023-04-06T00:03:39;99421.25;;;2.72;46.30
77685;BME280;66844;46.092;18.268;2023-04-06T00:04:09;99424.72;;;2.74;47.28
77685;BME280;66844;46.092;18.268;2023-04-06T00:04:40;99423.09;;;2.70;46.13
77685;BME280;66844;46.092;18.268;2023-04-06T00:05:11;99417.75;;;2.73;46.53
77685;BME280;66844;46.092;18.268;2023-04-06T00:05:42;99421.41;;;2.68;46.50
77685;BME280;66844;46.092;18.268;2023-04-06T00:06:13;99421.31;;;2.71;47.33
77685;BME280;66844;46.092;18.268;2023-04-06T00:06:43;99419.56;;;2.71;47.23
77685;BME280;66844;46.092;18.268;2023-04-06T00:07:14;99423.09;;;2.69;47.08
77685;BME280;66844;46.092;18.268;2023-04-06T00:07:45;99419.50;;;2.73;46.67
77685;BME280;66844;46.092;18.268;2023-04-06T00:08:15;99417.75;;;2.73;46.84
77685;BME280;66844;46.092;18.268;2023-04-06T00:08:46;99410.75;;;2.72;47.18
77685;BME280;66844;46.092;18.268;2023-04-06T00:09:17;99419.47;;;2.74;47.14
77685;BME280;66844;46.092;18.268;2023-04-06T00:09:47;99414.25;;;2.73;46.83
77685;BME280;66844;46.092;18.268;2023-04-06T00:10:18;99416.09;;;2.69;46.30
77685;BME280;66844;46.092;18.268;2023-04-06T00:10:49;99415.22;;;2.69;47.44
77685;BME280;66844;46.092;18.268;2023-04-06T00:11:19;99420.47;;;2.70;46.78
77685;BME280;66844;46.092;18.268;2023-04-06T00:11:50;99420.41;;;2.72;47.19
77685;BME280;66844;46.092;18.268;2023-04-06T00:12:21;99417.84;;;2.69;46.82
77685;BME280;66844;46.092;18.268;2023-04-06T00:12:52;99412.66;;;2.67;47.42
77685;BME280;66844;46.092;18.268;2023-04-06T00:13:23;99419.59;;;2.70;47.30
77685;BME280;66844;46.092;18.268;2023-04-06T00:13:53;99418.69;;;2.71;46.74
77685;BME280;66844;46.092;18.268;2023-04-06T00:14:24;99419.59;;;2.70;46.34
77685;BME280;66844;46.092;18.268;2023-04-06T00:14:55;99422.22;;;2.70;47.03
77685;BME280;66844;46.092;18.268;2023-04-06T00:15:26;99418.69;;;2.71;47.24
77685;BME280;66844;46.092;18.268;2023-04-06T00:15:57;99405.69;;;2.66;47.04
77685;BME280;66844;46.092;18.268;2023-04-06T00:16:28;99420.47;;;2.70;46.52
77685;BME280;66844;46.092;18.268;2023-04-06T00:16:59;99418.69;;;2.71;47.03
77685;BME280;66844;46.092;18.268;2023-04-06T00:17:30;99411.81;;;2.67;47.37
77685;BME280;66844;46.092;18.268;2023-04-06T00:18:00;99420.47;;;2.70;46.47
77685;BME280;66844;46.092;18.268;2023-04-06T00:18:31;99419.69;;;2.67;46.94
77685;BME280;66844;46.092;18.268;2023-04-06T00:19:02;99416.19;;;2.66;46.56
77685;BME280;66844;46.092;18.268;2023-04-06T00:19:33;99414.44;;;2.67;47.14
77685;BME280;66844;46.092;18.268;2023-04-06T00:20:04;99411.81;;;2.67;47.12
77685;BME280;66844;46.092;18.268;2023-04-06T00:20:35;99417.94;;;2.66;47.76
77685;BME280;66844;46.092;18.268;2023-04-06T00:21:05;99417.16;;;2.64;47.39
77685;BME280;66844;46.092;18.268;2023-04-06T00:21:36;99410.25;;;2.60;47.30
77685;BME280;66844;46.092;18.268;2023-04-06T00:22:07;99416.41;;;2.57;46.57
77685;BME280;66844;46.092;18.268;2023-04-06T00:22:38;99413.78;;;2.57;47.48
77685;BME280;66844;46.092;18.268;2023-04-06T00:23:08;99413.75;;;2.59;47.46
77685;BME280;66844;46.092;18.268;2023-04-06T00:23:40;99407.66;;;2.58;47.06
77685;BME280;66844;46.092;18.268;2023-04-06T00:24:11;99418.16;;;2.58;47.23
77685;BME280;66844;46.092;18.268;2023-04-06T00:24:41;99409.38;;;2.59;46.78
77685;BME280;66844;46.092;18.268;2023-04-06T00:25:12;99416.38;;;2.59;47.15
77685;BME280;66844;46.092;18.268;2023-04-06T00:25:43;99411.94;;;2.61;46.98
77685;BME280;66844;46.092;18.268;2023-04-06T00:26:13;99409.31;;;2.61;47.74
77685;BME280;66844;46.092;18.268;2023-04-06T00:26:44;99408.50;;;2.60;47.45
77685;BME280;66844;46.092;18.268;2023-04-06T00:27:15;99405.03;;;2.58;46.85
77685;BME280;66844;46.092;18.268;2023-04-06T00:27:46;99406.09;;;2.51;47.08
77685;BME280;66844;46.092;18.268;2023-04-06T00:28:16;99404.41;;;2.49;47.00
77685;BME280;66844;46.092;18.268;2023-04-06T00:28:47;99405.22;;;2.51;47.03
77685;BME280;66844;46.092;18.268;2023-04-06T00:29:20;99406.00;;;2.54;47.05
77685;BME280;66844;46.092;18.268;2023-04-06T00:29:51;99403.34;;;2.56;47.83
77685;BME280;66844;46.092;18.268;2023-04-06T00:30:22;99405.09;;;2.57;47.24
77685;BME280;66844;46.092;18.268;2023-04-06T00:30:53;99405.97;;;2.56;47.68
77685;BME280;66844;46.092;18.268;2023-04-06T00:31:25;99399.88;;;2.54;47.79
77685;BME280;66844;46.092;18.268;2023-04-06T00:31:56;99406.91;;;2.53;47.32
77685;BME280;66844;46.092;18.268;2023-04-06T00:32:26;99406.09;;;2.51;47.89
77685;BME280;66844;46.092;18.268;2023-04-06T00:32:58;99403.47;;;2.51;47.06
77685;BME280;66844;46.092;18.268;2023-04-06T00:33:28;99396.47;;;2.52;47.68
77685;BME280;66844;46.092;18.268;2023-04-06T00:33:59;99406.97;;;2.52;47.39
77685;BME280;66844;46.092;18.268;2023-04-06T00:34:30;99406.91;;;2.53;47.81
77685;BME280;66844;46.092;18.268;2023-04-06T00:35:04;99408.63;;;2.54;47.86
77685;BME280;66844;46.092;18.268;2023-04-06T00:35:35;99407.75;;;2.54;47.25
77685;BME280;66844;46.092;18.268;2023-04-06T00:36:06;99396.34;;;2.56;47.10
77685;BME280;66844;46.092;18.268;2023-04-06T00:36:37;99407.66;;;2.58;47.29
77685;BME280;66844;46.092;18.268;2023-04-06T00:37:07;99403.38;;;2.54;47.87
77685;BME280;66844;46.092;18.268;2023-04-06T00:37:38;99399.84;;;2.55;47.51
77685;BME280;66844;46.092;18.268;2023-04-06T00:38:09;99399.84;;;2.55;47.95
77685;BME280;66844;46.092;18.268;2023-04-06T00:38:39;99400.75;;;2.54;47.38
77685;BME280;66844;46.092;18.268;2023-04-06T00:39:10;99396.34;;;2.56;47.59
77685;BME280;66844;46.092;18.268;2023-04-06T00:39:41;99396.41;;;2.53;47.95
77685;BME280;66844;46.092;18.268;2023-04-06T00:40:11;99403.44;;;2.53;47.72
77685;BME280;66844;46.092;18.268;2023-04-06T00:40:43;99400.81;;;2.53;47.29
77685;BME280;66844;46.092;18.268;2023-04-06T00:41:17;99399.03;;;2.53;47.12
77685;BME280;66844;46.092;18.268;2023-04-06T00:41:51;99406.91;;;2.53;47.25
77685;BME280;66844;46.092;18.268;2023-04-06T00:42:24;99402.56;;;2.52;46.99
77685;BME280;66844;46.092;18.268;2023-04-06T00:42:57;99400.84;;;2.51;48.05
77685;BME280;66844;46.092;18.268;2023-04-06T00:43:28;99399.09;;;2.50;48.05
77685;BME280;66844;46.092;18.268;2023-04-06T00:43:59;99393.81;;;2.52;47.98
77685;BME280;66844;46.092;18.268;2023-04-06T00:44:29;99400.84;;;2.51;48.12
77685;BME280;66844;46.092;18.268;2023-04-06T00:45:02;99398.31;;;2.48;46.94
77685;BME280;66844;46.092;18.268;2023-04-06T00:45:33;99390.47;;;2.47;47.66
77685;BME280;66844;46.092;18.268;2023-04-06T00:46:04;99393.00;;;2.50;47.65
77685;BME280;66844;46.092;18.268;2023-04-06T00:46:34;99398.38;;;2.45;47.43
77685;BME280;66844;46.092;18.268;2023-04-06T00:47:05;99394.00;;;2.46;47.67
77685;BME280;66844;46.092;18.268;2023-04-06T00:47:36;99394.06;;;2.42;47.92
77685;BME280;66844;46.092;18.268;2023-04-06T00:48:07;99399.25;;;2.46;48.30
77685;BME280;66844;46.092;18.268;2023-04-06T00:48:38;99386.97;;;2.46;47.15
77685;BME280;66844;46.092;18.268;2023-04-06T00:49:09;99394.84;;;2.46;47.13
77685;BME280;66844;46.092;18.268;2023-04-06T00:49:40;99394.94;;;2.43;47.17
77685;BME280;66844;46.092;18.268;2023-04-06T00:50:11;99392.19;;;2.48;47.53
77685;BME280;66844;46.092;18.268;2023-04-06T00:50:42;99390.44;;;2.48;48.29
77685;BME280;66844;46.092;18.268;2023-04-06T00:51:12;99395.81;;;2.42;48.22
77685;BME280;66844;46.092;18.268;2023-04-06T00:51:43;99386.34;;;2.38;48.03
77685;BME280;66844;46.092;18.268;2023-04-06T00:52:15;99385.47;;;2.37;47.15
77685;BME280;66844;46.092;18.268;2023-04-06T00:52:45;99384.47;;;2.41;47.66
77685;BME280;66844;46.092;18.268;2023-04-06T00:53:16;99394.91;;;2.44;47.42
77685;BME280;66844;46.092;18.268;2023-04-06T00:53:47;99388.78;;;2.44;47.49
77685;BME280;66844;46.092;18.268;2023-04-06T00:54:18;99387.91;;;2.43;47.19
77685;BME280;66844;46.092;18.268;2023-04-06T00:54:49;99380.06;;;2.42;48.00
77685;BME280;66844;46.092;18.268;2023-04-06T00:55:21;99389.69;;;2.43;48.40
77685;BME280;66844;46.092;18.268;2023-04-06T00:55:52;99394.06;;;2.42;47.52
77685;BME280;66844;46.092;18.268;2023-04-06T00:56:22;99382.69;;;2.42;48.45
77685;BME280;66844;46.092;18.268;2023-04-06T00:56:54;99382.75;;;2.40;47.43
77685;BME280;66844;46.092;18.268;2023-04-06T00:57:25;99387.94;;;2.42;47.36
77685;BME280;66844;46.092;18.268;2023-04-06T00:57:58;99382.75;;;2.40;48.54
77685;BME280;66844;46.092;18.268;2023-04-06T00:58:29;99384.59;;;2.37;48.25
77685;BME280;66844;46.092;18.268;2023-04-06T00:58:59;99384.59;;;2.37;47.92
77685;BME280;66844;46.092;18.268;2023-04-06T00:59:31;99383.75;;;2.35;47.68
77685;BME280;66844;46.092;18.268;2023-04-06T01:00:02;99377.69;;;2.34;47.73
77685;BME280;66844;46.092;18.268;2023-04-06T01:00:33;99388.03;;;2.39;48.44
77685;BME280;66844;46.092;18.268;2023-04-06T01:01:04;99388.00;;;2.40;47.81
77685;BME280;66844;46.092;18.268;2023-04-06T01:01:35;99385.38;;;2.40;47.34
77685;BME280;66844;46.092;18.268;2023-04-06T01:02:06;99386.34;;;2.38;48.25
77685;BME280;66844;46.092;18.268;2023-04-06T01:02:38;99382.94;;;2.34;48.16
77685;BME280;66844;46.092;18.268;2023-04-06T01:03:09;99378.56;;;2.33;47.62
77685;BME280;66844;46.092;18.268;2023-04-06T01:03:39;99377.72;;;2.31;47.71
77685;BME280;66844;46.092;18.268;2023-04-06T01:04:12;99379.38;;;2.35;47.71
77685;BME280;66844;46.092;18.268;2023-04-06T01:04:43;99385.41;;;2.39;48.42
77685;BME280;66844;46.092;18.268;2023-04-06T01:05:14;99384.47;;;2.41;47.17
77685;BME280;66844;46.092;18.268;2023-04-06T01:05:44;99379.38;;;2.35;47.37
77685;BME280;66844;46.092;18.268;2023-04-06T01:06:15;99380.31;;;2.34;48.40
77685;BME280;66844;46.092;18.268;2023-04-06T01:06:46;99376.72;;;2.37;47.50
77685;BME280;66844;46.092;18.268;2023-04-06T01:07:17;99388.03;;;2.39;47.99
77685;BME280;66844;46.092;18.268;2023-04-06T01:07:47;99381.13;;;2.35;48.28
77685;BME280;66844;46.092;18.268;2023-04-06T01:08:18;99377.59;;;2.37;47.53
77685;BME280;66844;46.092;18.268;2023-04-06T01:08:49;99375.84;;;2.36;47.14
77685;BME280;66844;46.092;18.268;2023-04-06T01:09:20;99378.59;;;2.32;47.85
77685;BME280;66844;46.092;18.268;2023-04-06T01:09:56;99378.50;;;2.35;47.54
77685;BME280;66844;46.092;18.268;2023-04-06T01:10:28;99379.38;;;2.35;47.81
77685;BME280;66844;46.092;18.268;2023-04-06T01:11:00;99377.72;;;2.31;48.10
77685;BME280;66844;46.092;18.268;2023-04-06T01:11:31;99370.72;;;2.32;47.37
77685;BME280;66844;46.092;18.268;2023-04-06T01:12:02;99372.44;;;2.34;47.93
77685;BME280;66844;46.092;18.268;2023-04-06T01:12:33;99376.94;;;2.29;48.09
77685;BME280;66844;46.092;18.268;2023-04-06T01:13:04;99374.31;;;2.29;47.60
77685;BME280;66844;46.092;18.268;2023-04-06T01:13:37;99379.56;;;2.29;48.17
77685;BME280;66844;46.092;18.268;2023-04-06T01:14:08;99384.81;;;2.29;47.68
77685;BME280;66844;46.092;18.268;2023-04-06T01:14:38;99382.97;;;2.33;48.12
77685;BME280;66844;46.092;18.268;2023-04-06T01:15:09;99373.31;;;2.33;48.40
77685;BME280;66844;46.092;18.268;2023-04-06T01:15:42;99375.97;;;2.32;48.26
77685;BME280;66844;46.092;18.268;2023-04-06T01:16:13;99372.44;;;2.33;47.84
77685;BME280;66844;46.092;18.268;2023-04-06T01:16:43;99369.00;;;2.31;47.91
77685;BME280;66844;46.092;18.268;2023-04-06T01:17:14;99373.41;;;2.30;47.59
77685;BME280;66844;46.092;18.268;2023-04-06T01:17:45;99369.06;;;2.29;47.38
77685;BME280;66844;46.092;18.268;2023-04-06T01:18:15;99375.97;;;2.32;48.07
77685;BME280;66844;46.092;18.268;2023-04-06T01:18:46;99375.00;;;2.36;48.45
77685;BME280;66844;46.092;18.268;2023-04-06T01:19:17;99374.09;;;2.37;48.14
77685;BME280;66844;46.092;18.268;2023-04-06T01:19:48;99368.16;;;2.30;47.50
77685;BME280;66844;46.092;18.268;2023-04-06T01:20:20;99364.59;;;2.33;47.48
77685;BME280;66844;46.092;18.268;2023-04-06T01:20:50;99374.19;;;2.34;48.37
77685;BME280;66844;46.092;18.268;2023-04-06T01:21:21;99365.53;;;2.30;47.73
77685;BME280;66844;46.092;18.268;2023-04-06T01:21:52;99369.00;;;2.31;47.98
77685;BME280;66844;46.092;18.268;2023-04-06T01:22:24;99360.31;;;2.29;48.33
77685;BME280;66844;46.092;18.268;2023-04-06T01:22:55;99368.09;;;2.32;48.38
77685;BME280;66844;46.092;18.268;2023-04-06T01:23:26;99368.09;;;2.32;48.35
77685;BME280;66844;46.092;18.268;2023-04-06T01:23:56;99367.22;;;2.33;47.40
77685;BME280;66844;46.092;18.268;2023-04-06T01:24:27;99360.31;;;2.29;47.29
77685;BME280;66844;46.092;18.268;2023-04-06T01:24:58;99365.66;;;2.26;47.72
77685;BME280;66844;46.092;18.268;2023-04-06T01:25:28;99359.56;;;2.24;48.48
77685;BME280;66844;46.092;18.268;2023-04-06T01:26:00;99356.88;;;2.27;48.09
77685;BME280;66844;46.092;18.268;2023-04-06T01:26:31;99361.34;;;2.23;47.71
77685;BME280;66844;46.092;18.268;2023-04-06T01:27:01;99367.41;;;2.25;48.45
77685;BME280;66844;46.092;18.268;2023-04-06T01:27:32;99360.44;;;2.24;47.35
77685;BME280;66844;46.092;18.268;2023-04-06T01:28:03;99362.13;;;2.27;48.07
77685;BME280;66844;46.092;18.268;2023-04-06T01:28:34;99356.88;;;2.27;48.25
77685;BME280;66844;46.092;18.268;2023-04-06T01:29:04;99367.41;;;2.25;48.29
77685;BME280;66844;46.092;18.268;2023-04-06T01:29:35;99361.28;;;2.25;47.74
77685;BME280;66844;46.092;18.268;2023-04-06T01:30:06;99348.16;;;2.25;47.57
77685;BME280;66844;46.092;18.268;2023-04-06T01:30:37;99356.94;;;2.24;47.23
77685;BME280;66844;46.092;18.268;2023-04-06T01:31:08;99356.94;;;2.24;47.52
77685;BME280;66844;46.092;18.268;2023-04-06T01:31:39;99358.59;;;2.28;47.16
77685;BME280;66844;46.092;18.268;2023-04-06T01:32:10;99359.50;;;2.27;47.60
77685;BME280;66844;46.092;18.268;2023-04-06T01:32:41;99356.03;;;2.25;48.27
77685;BME280;66844;46.092;18.268;2023-04-06T01:33:12;99352.63;;;2.23;47.38
77685;BME280;66844;46.092;18.268;2023-04-06T01:33:42;99365.59;;;2.27;47.87
77685;BME280;66844;46.092;18.268;2023-04-06T01:34:13;99351.66;;;2.25;47.84
77685;BME280;66844;46.092;18.268;2023-04-06T01:34:44;99353.41;;;2.26;48.31
77685;BME280;66844;46.092;18.268;2023-04-06T01:35:15;99355.16;;;2.26;47.50
77685;BME280;66844;46.092;18.268;2023-04-06T01:35:45;99357.81;;;2.24;48.43
77685;BME280;66844;46.092;18.268;2023-04-06T01:36:16;99355.19;;;2.24;47.67
77685;BME280;66844;46.092;18.268;2023-04-06T01:36:47;99352.56;;;2.24;48.45
77685;BME280;66844;46.092;18.268;2023-04-06T01:37:17;99354.31;;;2.24;47.43
77685;BME280;66844;46.092;18.268;2023-04-06T01:37:48;99355.25;;;2.21;47.83
77685;BME280;66844;46.092;18.268;2023-04-06T01:38:19;99350.97;;;2.19;48.38
77685;BME280;66844;46.092;18.268;2023-04-06T01:38:49;99357.00;;;2.22;48.11
77685;BME280;66844;46.092;18.268;2023-04-06T01:39:20;99352.63;;;2.23;47.50
77685;BME280;66844;46.092;18.268;2023-04-06T01:39:51;99356.03;;;2.25;47.66
77685;BME280;66844;46.092;18.268;2023-04-06T01:40:23;99349.22;;;2.19;47.51
77685;BME280;66844;46.092;18.268;2023-04-06T01:40:54;99356.16;;;2.20;48.42
77685;BME280;66844;46.092;18.268;2023-04-06T01:41:25;99359.72;;;2.19;48.23
77685;BME280;66844;46.092;18.268;2023-04-06T01:41:56;99347.41;;;2.20;47.45
77685;BME280;66844;46.092;18.268;2023-04-06T01:42:27;99354.47;;;2.18;47.97
77685;BME280;66844;46.092;18.268;2023-04-06T01:42:58;99352.72;;;2.18;47.96
77685;BME280;66844;46.092;18.268;2023-04-06T01:43:29;99351.69;;;2.24;47.58
77685;BME280;66844;46.092;18.268;2023-04-06T01:44:00;99352.56;;;2.24;47.79
77685;BME280;66844;46.092;18.268;2023-04-06T01:44:30;99347.38;;;2.23;48.03
77685;BME280;66844;46.092;18.268;2023-04-06T01:45:01;99348.34;;;2.19;48.11
77685;BME280;66844;46.092;18.268;2023-04-06T01:45:32;99350.19;;;2.15;48.44
77685;BME280;66844;46.092;18.268;2023-04-06T01:46:03;99351.06;;;2.16;48.29
77685;BME280;66844;46.092;18.268;2023-04-06T01:46:33;99342.25;;;2.17;48.26
77685;BME280;66844;46.092;18.268;2023-04-06T01:47:04;99340.59;;;2.14;48.52
77685;BME280;66844;46.092;18.268;2023-04-06T01:47:35;99346.63;;;2.16;47.98
77685;BME280;66844;46.092;18.268;2023-04-06T01:48:07;99349.25;;;2.18;48.35
77685;BME280;66844;46.092;18.268;2023-04-06T01:48:38;99351.78;;;2.21;47.82
77685;BME280;66844;46.092;18.268;2023-04-06T01:49:08;99340.50;;;2.17;48.22
77685;BME280;66844;46.092;18.268;2023-04-06T01:49:39;99355.34;;;2.18;48.41
77685;BME280;66844;46.092;18.268;2023-04-06T01:50:10;99345.66;;;2.20;47.87
77685;BME280;66844;46.092;18.268;2023-04-06T01:50:41;99349.16;;;2.21;47.75
77685;BME280;66844;46.092;18.268;2023-04-06T01:51:11;99353.41;;;2.25;47.57
77685;BME280;66844;46.092;18.268;2023-04-06T01:51:42;99353.47;;;2.23;48.12
77685;BME280;66844;46.092;18.268;2023-04-06T01:52:13;99349.25;;;2.18;48.39
77685;BME280;66844;46.092;18.268;2023-04-06T01:52:44;99351.84;;;2.19;47.85
77685;BME280;66844;46.092;18.268;2023-04-06T01:53:14;99351.00;;;2.17;47.77
77685;BME280;66844;46.092;18.268;2023-04-06T01:53:46;99350.09;;;2.18;48.25
77685;BME280;66844;46.092;18.268;2023-04-06T01:54:18;99346.50;;;2.22;48.42
77685;BME280;66844;46.092;18.268;2023-04-06T01:54:49;99350.97;;;2.19;47.54
77685;BME280;66844;46.092;18.268;2023-04-06T01:55:19;99354.50;;;2.16;48.07
77685;BME280;66844;46.092;18.268;2023-04-06T01:55:50;99344.00;;;2.16;48.78
77685;BME280;66844;46.092;18.268;2023-04-06T01:56:21;99338.13;;;2.08;48.36
77685;BME280;66844;46.092;18.268;2023-04-06T01:56:52;99338.03;;;2.11;48.83
77685;BME280;66844;46.092;18.268;2023-04-06T01:57:22;99348.53;;;2.11;47.96
77685;BME280;66844;46.092;18.268;2023-04-06T01:57:53;99346.69;;;2.15;47.67
77685;BME280;66844;46.092;18.268;2023-04-06T01:58:24;99343.19;;;2.16;48.70
77685;BME280;66844;46.092;18.268;2023-04-06T01:58:54;99339.72;;;2.14;48.18
77685;BME280;66844;46.092;18.268;2023-04-06T01:59:26;99345.91;;;2.11;47.85
77685;BME280;66844;46.092;18.268;2023-04-06T01:59:56;99337.97;;;2.14;48.88
77685;BME280;66844;46.092;18.268;2023-04-06T02:00:27;99347.50;;;2.17;48.65
77685;BME280;66844;46.092;18.268;2023-04-06T02:00:58;99341.38;;;2.16;48.89
77685;BME280;66844;46.092;18.268;2023-04-06T02:01:28;99342.22;;;2.18;48.90
77685;BME280;66844;46.092;18.268;2023-04-06T02:01:59;99348.34;;;2.19;48.79
77685;BME280;66844;46.092;18.268;2023-04-06T02:02:30;99344.84;;;2.18;48.22
77685;BME280;66844;46.092;18.268;2023-04-06T02:03:01;99338.75;;;2.16;48.63
77685;BME280;66844;46.092;18.268;2023-04-06T02:03:31;99334.34;;;2.18;47.95
77685;BME280;66844;46.092;18.268;2023-04-06T02:04:02;99331.81;;;2.15;48.25
77685;BME280;66844;46.092;18.268;2023-04-06T02:04:32;99343.13;;;2.17;48.17
77685;BME280;66844;46.092;18.268;2023-04-06T02:05:03;99337.09;;;2.14;48.62
77685;BME280;66844;46.092;18.268;2023-04-06T02:05:34;99340.56;;;2.16;48.78
77685;BME280;66844;46.092;18.268;2023-04-06T02:06:08;99339.69;;;2.15;48.96
77685;BME280;66844;46.092;18.268;2023-04-06T02:06:38;99343.31;;;2.10;49.29
77685;BME280;66844;46.092;18.268;2023-04-06T02:07:09;99334.44;;;2.15;49.03
77685;BME280;66844;46.092;18.268;2023-04-06T02:07:40;99344.06;;;2.15;48.45
77685;BME280;66844;46.092;18.268;2023-04-06T02:08:10;99332.72;;;2.14;48.72
77685;BME280;66844;46.092;18.268;2023-04-06T02:08:41;99332.69;;;2.16;49.26
77685;BME280;66844;46.092;18.268;2023-04-06T02:09:12;99331.06;;;2.10;48.52
77685;BME280;66844;46.092;18.268;2023-04-06T02:09:42;99331.16;;;2.07;48.30
77685;BME280;66844;46.092;18.268;2023-04-06T02:10:14;99339.81;;;2.11;48.95
77685;BME280;66844;46.092;18.268;2023-04-06T02:10:45;99333.69;;;2.10;48.83
77685;BME280;66844;46.092;18.268;2023-04-06T02:11:15;99332.03;;;2.08;48.97
77685;BME280;66844;46.092;18.268;2023-04-06T02:11:46;99332.13;;;2.03;48.59
77685;BME280;66844;46.092;18.268;2023-04-06T02:12:17;99332.94;;;2.05;48.25
77685;BME280;66844;46.092;18.268;2023-04-06T02:12:48;99330.31;;;2.05;48.84
77685;BME280;66844;46.092;18.268;2023-04-06T02:13:18;99331.19;;;2.06;49.07
77685;BME280;66844;46.092;18.268;2023-04-06T02:13:49;99337.19;;;2.11;47.90
77685;BME280;66844;46.092;18.268;2023-04-06T02:14:20;99335.34;;;2.14;49.09
77685;BME280;66844;46.092;18.268;2023-04-06T02:14:51;99344.94;;;2.15;48.33
77685;BME280;66844;46.092;18.268;2023-04-06T02:15:22;99335.38;;;2.13;48.00
77685;BME280;66844;46.092;18.268;2023-04-06T02:15:52;99333.69;;;2.10;48.64
77685;BME280;66844;46.092;18.268;2023-04-06T02:16:23;99330.19;;;2.10;49.06
77685;BME280;66844;46.092;18.268;2023-04-06T02:16:54;99333.69;;;2.10;48.30
77685;BME280;66844;46.092;18.268;2023-04-06T02:17:24;99331.25;;;2.04;48.55
77685;BME280;66844;46.092;18.268;2023-04-06T02:17:55;99336.50;;;2.04;48.43
77685;BME280;66844;46.092;18.268;2023-04-06T02:18:26;99327.75;;;2.04;48.99
77685;BME280;66844;46.092;18.268;2023-04-06T02:18:56;99327.69;;;2.05;49.19
77685;BME280;66844;46.092;18.268;2023-04-06T02:19:27;99327.88;;;1.98;48.44
77685;BME280;66844;46.092;18.268;2023-04-06T02:19:58;99335.72;;;2.01;49.15
77685;BME280;66844;46.092;18.268;2023-04-06T02:20:28;99331.25;;;2.03;48.18
77685;BME280;66844;46.092;18.268;2023-04-06T02:21:00;99331.28;;;2.01;48.60
77685;BME280;66844;46.092;18.268;2023-04-06T02:21:30;99333.97;;;2.00;48.73
77685;BME280;66844;46.092;18.268;2023-04-06T02:22:01;99334.75;;;2.03;49.15
77685;BME280;66844;46.092;18.268;2023-04-06T02:22:32;99325.22;;;2.01;48.09
77685;BME280;66844;46.092;18.268;2023-04-06T02:23:02;99333.03;;;2.02;48.48
77685;BME280;66844;46.092;18.268;2023-04-06T02:23:33;99339.09;;;2.04;48.53
77685;BME280;66844;46.092;18.268;2023-04-06T02:24:04;99340.00;;;2.03;49.16
77685;BME280;66844;46.092;18.268;2023-04-06T02:24:35;99339.25;;;1.98;48.29
77685;BME280;66844;46.092;18.268;2023-04-06T02:25:06;99334.84;;;2.00;48.99
77685;BME280;66844;46.092;18.268;2023-04-06T02:25:37;99329.69;;;1.97;48.69
77685;BME280;66844;46.092;18.268;2023-04-06T02:26:07;99327.84;;;1.99;49.04
77685;BME280;66844;46.092;18.268;2023-04-06T02:26:38;99335.72;;;1.99;49.15
77685;BME280;66844;46.092;18.268;2023-04-06T02:27:09;99331.34;;;2.00;49.19
77685;BME280;66844;46.092;18.268;2023-04-06T02:27:40;99326.22;;;1.95;49.61
77685;BME280;66844;46.092;18.268;2023-04-06T02:28:11;99330.59;;;1.94;48.96
77685;BME280;66844;46.092;18.268;2023-04-06T02:28:41;99335.72;;;1.99;48.62
77685;BME280;66844;46.092;18.268;2023-04-06T02:29:12;99334.00;;;1.98;49.07
77685;BME280;66844;46.092;18.268;2023-04-06T02:29:43;99332.34;;;1.94;49.63
77685;BME280;66844;46.092;18.268;2023-04-06T02:30:13;99330.69;;;1.91;49.04
77685;BME280;66844;46.092;18.268;2023-04-06T02:30:44;99323.75;;;1.89;48.91
77685;BME280;66844;46.092;18.268;2023-04-06T02:31:15;99326.38;;;1.89;49.48
77685;BME280;66844;46.092;18.268;2023-04-06T02:31:46;99329.81;;;1.91;49.86
77685;BME280;66844;46.092;18.268;2023-04-06T02:32:17;99325.44;;;1.91;48.97
77685;BME280;66844;46.092;18.268;2023-04-06T02:32:47;99324.53;;;1.92;49.88
77685;BME280;66844;46.092;18.268;2023-04-06T02:33:18;99325.34;;;1.94;48.76
77685;BME280;66844;46.092;18.268;2023-04-06T02:33:48;99326.38;;;1.89;49.60
77685;BME280;66844;46.092;18.268;2023-04-06T02:34:19;99324.69;;;1.86;49.30
77685;BME280;66844;46.092;18.268;2023-04-06T02:34:50;99324.81;;;1.82;49.82
77685;BME280;66844;46.092;18.268;2023-04-06T02:35:21;99323.03;;;1.82;49.65
77685;BME280;66844;46.092;18.268;2023-04-06T02:35:51;99326.56;;;1.81;49.73
77685;BME280;66844;46.092;18.268;2023-04-06T02:36:22;99324.75;;;1.83;49.10
77685;BME280;66844;46.092;18.268;2023-04-06T02:36:53;99326.47;;;1.86;49.16
77685;BME280;66844;46.092;18.268;2023-04-06T02:37:23;99323.84;;;1.86;49.42
77685;BME280;66844;46.092;18.268;2023-04-06T02:37:54;99328.22;;;1.85;49.27
77685;BME280;66844;46.092;18.268;2023-04-06T02:38:25;99324.88;;;1.79;49.79
77685;BME280;66844;46.092;18.268;2023-04-06T02:38:55;99330.13;;;1.79;49.31
77685;BME280;66844;46.092;18.268;2023-04-06T02:39:26;99322.31;;;1.77;50.24
77685;BME280;66844;46.092;18.268;2023-04-06T02:39:57;99319.72;;;1.76;49.28
77685;BME280;66844;46.092;18.268;2023-04-06T02:40:28;99330.16;;;1.77;50.25
77685;BME280;66844;46.092;18.268;2023-04-06T02:40:58;99334.53;;;1.78;50.48
77685;BME280;66844;46.092;18.268;2023-04-06T02:41:29;99332.03;;;1.72;49.95
77685;BME280;66844;46.092;18.268;2023-04-06T02:42:00;99322.44;;;1.71;49.58
77685;BME280;66844;46.092;18.268;2023-04-06T02:42:30;99331.16;;;1.73;49.39
77685;BME280;66844;46.092;18.268;2023-04-06T02:43:01;99322.50;;;1.70;49.44
77685;BME280;66844;46.092;18.268;2023-04-06T02:43:32;99325.91;;;1.73;49.85